Terminal Aerodrome Forecast
Issued by NWS

Home | Current Version | Previous Version | Text Only | Print | Product List | Glossary On
Versions: 1 2 3 4 5 6 7 8 9 10 11 12
446
FTUS44 KTSA 291120
TAFXNA
TAF
KXNA 291120Z 2912/3012 17008KT P6SM BKN250
     FM291500 18010G19KT P6SM SCT040 SCT250
     FM291800 18011G21KT P6SM SCT050 SCT250
     FM300200 17007KT P6SM FEW050 SCT250=

USA.gov is the U.S. government's official web portal to all federal, state and local government web resources and services.